sensor_id;sensor_type;location;lat;lon;timestamp;P1;durP1;ratioP1;P2;durP2;ratioP2
7316;SDS011;3699;51.462;6.696;2022-08-16T00:00:28;11.47;;;6.93;;
7316;SDS011;3699;51.462;6.696;2022-08-16T00:02:59;12.90;;;6.63;;
7316;SDS011;3699;51.462;6.696;2022-08-16T00:05:26;9.77;;;5.67;;
7316;SDS011;3699;51.462;6.696;2022-08-16T00:07:54;7.53;;;5.47;;
7316;SDS011;3699;51.462;6.696;2022-08-16T00:10:24;8.60;;;6.03;;
7316;SDS011;3699;51.462;6.696;2022-08-16T00:12:52;8.93;;;5.00;;
7316;SDS011;3699;51.462;6.696;2022-08-16T00:15:20;11.60;;;6.23;;
7316;SDS011;3699;51.462;6.696;2022-08-16T00:17:49;11.13;;;6.90;;
7316;SDS011;3699;51.462;6.696;2022-08-16T00:20:18;7.37;;;5.50;;
7316;SDS011;3699;51.462;6.696;2022-08-16T00:22:48;7.63;;;5.53;;
7316;SDS011;3699;51.462;6.696;2022-08-16T00:25:16;7.90;;;6.00;;
7316;SDS011;3699;51.462;6.696;2022-08-16T00:27:44;6.27;;;5.67;;
7316;SDS011;3699;51.462;6.696;2022-08-16T00:30:12;8.37;;;6.27;;
7316;SDS011;3699;51.462;6.696;2022-08-16T00:32:41;8.90;;;5.90;;
7316;SDS011;3699;51.462;6.696;2022-08-16T00:35:10;8.27;;;6.00;;
7316;SDS011;3699;51.462;6.696;2022-08-16T00:37:40;7.53;;;5.20;;
7316;SDS011;3699;51.462;6.696;2022-08-16T00:40:08;6.80;;;5.47;;
7316;SDS011;3699;51.462;6.696;2022-08-16T00:42:37;6.37;;;5.00;;
7316;SDS011;3699;51.462;6.696;2022-08-16T00:45:04;7.33;;;5.80;;
7316;SDS011;3699;51.462;6.696;2022-08-16T00:47:34;6.47;;;5.77;;
7316;SDS011;3699;51.462;6.696;2022-08-16T00:50:04;6.13;;;5.50;;
7316;SDS011;3699;51.462;6.696;2022-08-16T00:52:31;6.00;;;5.43;;
7316;SDS011;3699;51.462;6.696;2022-08-16T00:55:00;6.43;;;5.23;;
7316;SDS011;3699;51.462;6.696;2022-08-16T00:57:27;8.13;;;5.57;;
7316;SDS011;3699;51.462;6.696;2022-08-16T00:59:54;9.53;;;5.77;;
7316;SDS011;3699;51.462;6.696;2022-08-16T01:02:21;5.93;;;5.20;;
7316;SDS011;3699;51.462;6.696;2022-08-16T01:04:48;5.37;;;4.87;;
7316;SDS011;3699;51.462;6.696;2022-08-16T01:07:15;7.83;;;5.30;;
7316;SDS011;3699;51.462;6.696;2022-08-16T01:09:41;9.10;;;5.67;;
7316;SDS011;3699;51.462;6.696;2022-08-16T01:12:10;6.67;;;5.43;;
7316;SDS011;3699;51.462;6.696;2022-08-16T01:14:38;6.63;;;5.73;;
7316;SDS011;3699;51.462;6.696;2022-08-16T01:17:08;8.60;;;5.83;;
7316;SDS011;3699;51.462;6.696;2022-08-16T01:19:37;9.43;;;5.60;;
7316;SDS011;3699;51.462;6.696;2022-08-16T01:22:11;8.13;;;5.93;;
7316;SDS011;3699;51.462;6.696;2022-08-16T01:24:44;5.90;;;5.30;;
7316;SDS011;3699;51.462;6.696;2022-08-16T01:27:15;6.33;;;5.73;;
7316;SDS011;3699;51.462;6.696;2022-08-16T01:29:48;5.77;;;5.27;;
7316;SDS011;3699;51.462;6.696;2022-08-16T01:32:19;6.97;;;5.03;;
7316;SDS011;3699;51.462;6.696;2022-08-16T01:34:45;7.77;;;5.50;;
7316;SDS011;3699;51.462;6.696;2022-08-16T01:37:13;8.60;;;6.07;;
7316;SDS011;3699;51.462;6.696;2022-08-16T01:39:40;5.90;;;5.37;;
7316;SDS011;3699;51.462;6.696;2022-08-16T01:42:09;8.17;;;5.30;;
7316;SDS011;3699;51.462;6.696;2022-08-16T01:44:36;6.33;;;5.30;;
7316;SDS011;3699;51.462;6.696;2022-08-16T01:47:04;5.37;;;4.87;;
7316;SDS011;3699;51.462;6.696;2022-08-16T01:49:32;6.33;;;5.37;;
7316;SDS011;3699;51.462;6.696;2022-08-16T01:52:07;8.23;;;5.73;;
7316;SDS011;3699;51.462;6.696;2022-08-16T01:54:37;6.43;;;5.63;;
7316;SDS011;3699;51.462;6.696;2022-08-16T01:57:03;5.47;;;4.93;;
7316;SDS011;3699;51.462;6.696;2022-08-16T01:59:32;7.73;;;5.33;;
7316;SDS011;3699;51.462;6.696;2022-08-16T02:02:01;8.03;;;5.47;;
7316;SDS011;3699;51.462;6.696;2022-08-16T02:04:29;5.67;;;5.17;;
7316;SDS011;3699;51.462;6.696;2022-08-16T02:06:57;5.13;;;4.73;;
7316;SDS011;3699;51.462;6.696;2022-08-16T02:09:24;5.80;;;5.13;;
7316;SDS011;3699;51.462;6.696;2022-08-16T02:11:53;5.67;;;5.00;;
7316;SDS011;3699;51.462;6.696;2022-08-16T02:14:24;6.13;;;5.40;;
7316;SDS011;3699;51.462;6.696;2022-08-16T02:16:55;6.03;;;5.37;;
7316;SDS011;3699;51.462;6.696;2022-08-16T02:19:22;6.87;;;5.00;;
7316;SDS011;3699;51.462;6.696;2022-08-16T02:21:51;7.93;;;5.07;;
7316;SDS011;3699;51.462;6.696;2022-08-16T02:24:19;5.70;;;5.20;;
7316;SDS011;3699;51.462;6.696;2022-08-16T02:26:46;5.93;;;5.33;;
7316;SDS011;3699;51.462;6.696;2022-08-16T02:29:13;5.07;;;4.67;;
7316;SDS011;3699;51.462;6.696;2022-08-16T02:31:42;5.43;;;4.93;;
7316;SDS011;3699;51.462;6.696;2022-08-16T02:34:10;5.83;;;5.23;;
7316;SDS011;3699;51.462;6.696;2022-08-16T02:36:37;6.60;;;5.20;;
7316;SDS011;3699;51.462;6.696;2022-08-16T02:39:04;5.40;;;4.90;;
7316;SDS011;3699;51.462;6.696;2022-08-16T02:41:32;6.80;;;5.27;;
7316;SDS011;3699;51.462;6.696;2022-08-16T02:44:00;5.90;;;5.40;;
7316;SDS011;3699;51.462;6.696;2022-08-16T02:46:27;6.03;;;5.43;;
7316;SDS011;3699;51.462;6.696;2022-08-16T02:48:54;6.40;;;5.30;;
7316;SDS011;3699;51.462;6.696;2022-08-16T02:51:22;7.40;;;5.53;;
7316;SDS011;3699;51.462;6.696;2022-08-16T02:53:49;6.97;;;5.50;;
7316;SDS011;3699;51.462;6.696;2022-08-16T02:56:17;5.60;;;5.20;;
7316;SDS011;3699;51.462;6.696;2022-08-16T02:58:44;7.20;;;6.17;;
7316;SDS011;3699;51.462;6.696;2022-08-16T03:01:15;8.30;;;5.47;;
7316;SDS011;3699;51.462;6.696;2022-08-16T03:03:44;6.97;;;5.93;;
7316;SDS011;3699;51.462;6.696;2022-08-16T03:06:11;6.27;;;5.27;;
7316;SDS011;3699;51.462;6.696;2022-08-16T03:08:39;7.30;;;5.87;;
7316;SDS011;3699;51.462;6.696;2022-08-16T03:11:06;6.30;;;5.70;;
7316;SDS011;3699;51.462;6.696;2022-08-16T03:13:33;6.57;;;5.97;;
7316;SDS011;3699;51.462;6.696;2022-08-16T03:16:00;10.03;;;6.63;;
7316;SDS011;3699;51.462;6.696;2022-08-16T03:18:27;7.03;;;5.87;;
7316;SDS011;3699;51.462;6.696;2022-08-16T03:20:54;9.30;;;5.83;;
7316;SDS011;3699;51.462;6.696;2022-08-16T03:23:20;7.00;;;5.60;;
7316;SDS011;3699;51.462;6.696;2022-08-16T03:25:49;10.70;;;6.17;;
7316;SDS011;3699;51.462;6.696;2022-08-16T03:28:15;7.63;;;5.70;;
7316;SDS011;3699;51.462;6.696;2022-08-16T03:30:42;10.57;;;6.60;;
7316;SDS011;3699;51.462;6.696;2022-08-16T03:33:09;8.97;;;6.63;;
7316;SDS011;3699;51.462;6.696;2022-08-16T03:35:37;8.77;;;5.80;;
7316;SDS011;3699;51.462;6.696;2022-08-16T03:38:06;9.33;;;6.80;;
7316;SDS011;3699;51.462;6.696;2022-08-16T03:40:36;7.30;;;6.60;;
7316;SDS011;3699;51.462;6.696;2022-08-16T03:43:07;7.50;;;5.70;;
7316;SDS011;3699;51.462;6.696;2022-08-16T03:45:37;11.00;;;5.90;;
7316;SDS011;3699;51.462;6.696;2022-08-16T03:48:05;9.57;;;5.87;;
7316;SDS011;3699;51.462;6.696;2022-08-16T03:50:33;9.40;;;6.00;;
7316;SDS011;3699;51.462;6.696;2022-08-16T03:53:02;7.00;;;5.73;;
7316;SDS011;3699;51.462;6.696;2022-08-16T03:55:30;7.77;;;6.47;;
7316;SDS011;3699;51.462;6.696;2022-08-16T03:57:56;8.73;;;6.53;;
7316;SDS011;3699;51.462;6.696;2022-08-16T04:00:25;12.50;;;5.80;;
7316;SDS011;3699;51.462;6.696;2022-08-16T04:02:54;10.80;;;6.50;;
7316;SDS011;3699;51.462;6.696;2022-08-16T04:05:22;9.67;;;6.43;;
7316;SDS011;3699;51.462;6.696;2022-08-16T04:07:49;9.03;;;6.23;;
7316;SDS011;3699;51.462;6.696;2022-08-16T04:10:16;7.63;;;6.77;;
7316;SDS011;3699;51.462;6.696;2022-08-16T04:12:43;7.10;;;6.40;;
7316;SDS011;3699;51.462;6.696;2022-08-16T04:15:12;6.90;;;6.20;;
7316;SDS011;3699;51.462;6.696;2022-08-16T04:17:42;7.53;;;6.83;;
7316;SDS011;3699;51.462;6.696;2022-08-16T04:20:10;10.33;;;7.07;;
7316;SDS011;3699;51.462;6.696;2022-08-16T04:22:39;8.30;;;6.70;;
7316;SDS011;3699;51.462;6.696;2022-08-16T04:25:08;9.30;;;6.33;;
7316;SDS011;3699;51.462;6.696;2022-08-16T04:27:35;9.67;;;6.63;;
7316;SDS011;3699;51.462;6.696;2022-08-16T04:30:05;9.20;;;6.60;;
7316;SDS011;3699;51.462;6.696;2022-08-16T04:32:34;9.40;;;6.97;;
7316;SDS011;3699;51.462;6.696;2022-08-16T04:35:02;7.63;;;6.37;;
7316;SDS011;3699;51.462;6.696;2022-08-16T04:37:30;7.80;;;6.07;;
7316;SDS011;3699;51.462;6.696;2022-08-16T04:39:56;11.47;;;6.67;;
7316;SDS011;3699;51.462;6.696;2022-08-16T04:42:23;9.13;;;6.60;;
7316;SDS011;3699;51.462;6.696;2022-08-16T04:44:51;9.43;;;6.17;;
7316;SDS011;3699;51.462;6.696;2022-08-16T04:47:19;8.00;;;6.57;;
7316;SDS011;3699;51.462;6.696;2022-08-16T04:49:46;10.57;;;6.87;;
7316;SDS011;3699;51.462;6.696;2022-08-16T04:52:14;7.63;;;6.47;;
7316;SDS011;3699;51.462;6.696;2022-08-16T04:54:41;9.73;;;6.20;;
7316;SDS011;3699;51.462;6.696;2022-08-16T04:57:07;9.73;;;7.10;;
7316;SDS011;3699;51.462;6.696;2022-08-16T04:59:34;12.10;;;6.23;;
7316;SDS011;3699;51.462;6.696;2022-08-16T05:02:01;9.60;;;6.47;;
7316;SDS011;3699;51.462;6.696;2022-08-16T05:04:28;10.50;;;7.37;;
7316;SDS011;3699;51.462;6.696;2022-08-16T05:06:55;7.17;;;6.47;;
7316;SDS011;3699;51.462;6.696;2022-08-16T05:09:23;7.10;;;6.37;;
7316;SDS011;3699;51.462;6.696;2022-08-16T05:11:50;10.93;;;7.00;;
7316;SDS011;3699;51.462;6.696;2022-08-16T05:14:16;9.80;;;6.73;;
7316;SDS011;3699;51.462;6.696;2022-08-16T05:16:43;10.50;;;7.30;;
7316;SDS011;3699;51.462;6.696;2022-08-16T05:19:10;7.70;;;6.90;;
7316;SDS011;3699;51.462;6.696;2022-08-16T05:21:37;9.70;;;7.13;;
7316;SDS011;3699;51.462;6.696;2022-08-16T05:24:04;8.87;;;7.50;;
7316;SDS011;3699;51.462;6.696;2022-08-16T05:26:33;9.70;;;6.77;;
7316;SDS011;3699;51.462;6.696;2022-08-16T05:29:02;12.87;;;7.53;;
7316;SDS011;3699;51.462;6.696;2022-08-16T05:31:30;9.77;;;7.50;;
7316;SDS011;3699;51.462;6.696;2022-08-16T05:33:58;7.97;;;6.67;;
7316;SDS011;3699;51.462;6.696;2022-08-16T05:36:26;10.53;;;7.53;;
7316;SDS011;3699;51.462;6.696;2022-08-16T05:38:53;8.60;;;6.60;;
7316;SDS011;3699;51.462;6.696;2022-08-16T05:41:20;9.67;;;6.23;;
7316;SDS011;3699;51.462;6.696;2022-08-16T05:43:48;9.10;;;6.40;;
7316;SDS011;3699;51.462;6.696;2022-08-16T05:46:14;7.00;;;5.60;;
7316;SDS011;3699;51.462;6.696;2022-08-16T05:48:43;7.67;;;5.87;;
7316;SDS011;3699;51.462;6.696;2022-08-16T05:51:11;5.90;;;5.30;;
7316;SDS011;3699;51.462;6.696;2022-08-16T05:53:37;8.03;;;6.10;;
7316;SDS011;3699;51.462;6.696;2022-08-16T05:56:04;7.17;;;5.33;;
7316;SDS011;3699;51.462;6.696;2022-08-16T05:58:31;7.87;;;5.50;;
7316;SDS011;3699;51.462;6.696;2022-08-16T06:00:59;6.47;;;4.70;;
7316;SDS011;3699;51.462;6.696;2022-08-16T06:03:26;6.93;;;5.50;;
7316;SDS011;3699;51.462;6.696;2022-08-16T06:05:53;5.77;;;4.70;;
7316;SDS011;3699;51.462;6.696;2022-08-16T06:08:19;6.70;;;5.33;;
7316;SDS011;3699;51.462;6.696;2022-08-16T06:10:46;9.00;;;5.07;;
7316;SDS011;3699;51.462;6.696;2022-08-16T06:13:13;6.53;;;4.80;;
7316;SDS011;3699;51.462;6.696;2022-08-16T06:15:39;7.07;;;5.00;;
7316;SDS011;3699;51.462;6.696;2022-08-16T06:18:08;6.43;;;4.80;;
7316;SDS011;3699;51.462;6.696;2022-08-16T06:20:34;11.37;;;5.00;;
7316;SDS011;3699;51.462;6.696;2022-08-16T06:23:01;6.15;;;4.07;;
7316;SDS011;3699;51.462;6.696;2022-08-16T06:25:29;9.57;;;4.82;;
7316;SDS011;3699;51.462;6.696;2022-08-16T06:27:57;5.13;;;4.50;;
7316;SDS011;3699;51.462;6.696;2022-08-16T06:30:24;5.07;;;4.57;;
7316;SDS011;3699;51.462;6.696;2022-08-16T06:32:51;5.95;;;4.60;;
7316;SDS011;3699;51.462;6.696;2022-08-16T06:35:19;4.25;;;3.85;;
7316;SDS011;3699;51.462;6.696;2022-08-16T06:37:46;4.80;;;4.38;;
7316;SDS011;3699;51.462;6.696;2022-08-16T06:40:12;5.57;;;5.07;;
7316;SDS011;3699;51.462;6.696;2022-08-16T06:42:39;6.63;;;4.90;;
7316;SDS011;3699;51.462;6.696;2022-08-16T06:45:06;6.00;;;4.80;;
7316;SDS011;3699;51.462;6.696;2022-08-16T06:47:33;7.05;;;5.30;;
7316;SDS011;3699;51.462;6.696;2022-08-16T06:50:00;6.72;;;5.25;;
7316;SDS011;3699;51.462;6.696;2022-08-16T06:52:28;8.02;;;5.13;;
7316;SDS011;3699;51.462;6.696;2022-08-16T06:55:01;9.88;;;5.10;;
7316;SDS011;3699;51.462;6.696;2022-08-16T06:57:28;7.88;;;4.97;;
7316;SDS011;3699;51.462;6.696;2022-08-16T06:59:55;5.95;;;4.70;;
7316;SDS011;3699;51.462;6.696;2022-08-16T07:02:22;8.25;;;5.05;;
7316;SDS011;3699;51.462;6.696;2022-08-16T07:04:49;6.18;;;5.00;;
7316;SDS011;3699;51.462;6.696;2022-08-16T07:07:17;7.43;;;4.75;;
7316;SDS011;3699;51.462;6.696;2022-08-16T07:09:46;5.97;;;5.38;;
7316;SDS011;3699;51.462;6.696;2022-08-16T07:12:13;6.47;;;5.63;;
7316;SDS011;3699;51.462;6.696;2022-08-16T07:14:40;10.48;;;5.13;;
7316;SDS011;3699;51.462;6.696;2022-08-16T07:17:08;6.18;;;5.53;;
7316;SDS011;3699;51.462;6.696;2022-08-16T07:19:35;8.15;;;5.20;;
7316;SDS011;3699;51.462;6.696;2022-08-16T07:22:01;6.60;;;5.80;;
7316;SDS011;3699;51.462;6.696;2022-08-16T07:24:28;6.22;;;5.60;;
7316;SDS011;3699;51.462;6.696;2022-08-16T07:26:57;7.10;;;5.65;;
7316;SDS011;3699;51.462;6.696;2022-08-16T07:29:24;5.88;;;5.35;;
7316;SDS011;3699;51.462;6.696;2022-08-16T07:31:51;9.20;;;5.90;;
7316;SDS011;3699;51.462;6.696;2022-08-16T07:34:18;11.52;;;5.60;;
7316;SDS011;3699;51.462;6.696;2022-08-16T07:36:45;7.60;;;5.97;;
7316;SDS011;3699;51.462;6.696;2022-08-16T07:39:12;15.73;;;7.55;;
7316;SDS011;3699;51.462;6.696;2022-08-16T07:41:39;16.05;;;8.13;;
7316;SDS011;3699;51.462;6.696;2022-08-16T07:44:09;7.22;;;5.47;;
7316;SDS011;3699;51.462;6.696;2022-08-16T07:46:36;5.93;;;5.30;;
7316;SDS011;3699;51.462;6.696;2022-08-16T07:49:03;7.25;;;5.72;;
7316;SDS011;3699;51.462;6.696;2022-08-16T07:51:30;10.30;;;6.57;;
7316;SDS011;3699;51.462;6.696;2022-08-16T07:53:59;8.18;;;6.18;;
7316;SDS011;3699;51.462;6.696;2022-08-16T07:56:26;6.63;;;6.00;;
7316;SDS011;3699;51.462;6.696;2022-08-16T07:58:53;7.30;;;5.85;;
7316;SDS011;3699;51.462;6.696;2022-08-16T08:01:22;9.05;;;5.95;;
7316;SDS011;3699;51.462;6.696;2022-08-16T08:03:50;6.63;;;5.95;;
7316;SDS011;3699;51.462;6.696;2022-08-16T08:06:18;7.88;;;5.78;;
7316;SDS011;3699;51.462;6.696;2022-08-16T08:08:46;11.90;;;6.82;;
7316;SDS011;3699;51.462;6.696;2022-08-16T08:11:14;12.02;;;6.63;;
7316;SDS011;3699;51.462;6.696;2022-08-16T08:13:41;6.63;;;5.45;;
7316;SDS011;3699;51.462;6.696;2022-08-16T08:16:07;6.55;;;5.85;;
7316;SDS011;3699;51.462;6.696;2022-08-16T08:18:36;6.82;;;5.95;;
7316;SDS011;3699;51.462;6.696;2022-08-16T08:21:04;7.45;;;5.40;;
7316;SDS011;3699;51.462;6.696;2022-08-16T08:23:33;8.25;;;5.68;;
7316;SDS011;3699;51.462;6.696;2022-08-16T08:26:00;10.48;;;5.95;;
7316;SDS011;3699;51.462;6.696;2022-08-16T08:28:27;9.10;;;5.93;;
7316;SDS011;3699;51.462;6.696;2022-08-16T08:30:56;11.73;;;6.40;;
7316;SDS011;3699;51.462;6.696;2022-08-16T08:33:23;7.28;;;5.88;;
7316;SDS011;3699;51.462;6.696;2022-08-16T08:35:54;6.75;;;5.85;;
7316;SDS011;3699;51.462;6.696;2022-08-16T08:38:22;11.90;;;6.00;;
7316;SDS011;3699;51.462;6.696;2022-08-16T08:40:50;11.85;;;6.40;;
7316;SDS011;3699;51.462;6.696;2022-08-16T08:43:17;7.95;;;5.80;;
7316;SDS011;3699;51.462;6.696;2022-08-16T08:45:43;16.77;;;5.90;;
7316;SDS011;3699;51.462;6.696;2022-08-16T08:48:10;8.77;;;5.95;;
7316;SDS011;3699;51.462;6.696;2022-08-16T08:50:38;6.15;;;5.55;;
7316;SDS011;3699;51.462;6.696;2022-08-16T08:53:07;6.30;;;5.35;;
7316;SDS011;3699;51.462;6.696;2022-08-16T08:55:34;8.15;;;5.13;;
7316;SDS011;3699;51.462;6.696;2022-08-16T08:58:01;9.80;;;5.70;;
7316;SDS011;3699;51.462;6.696;2022-08-16T09:00:28;9.32;;;5.55;;
7316;SDS011;3699;51.462;6.696;2022-08-16T09:02:56;8.73;;;6.50;;
7316;SDS011;3699;51.462;6.696;2022-08-16T09:05:23;6.88;;;5.07;;
7316;SDS011;3699;51.462;6.696;2022-08-16T09:07:51;6.35;;;5.75;;
7316;SDS011;3699;51.462;6.696;2022-08-16T09:10:21;6.07;;;5.20;;
7316;SDS011;3699;51.462;6.696;2022-08-16T09:12:48;7.05;;;6.00;;
7316;SDS011;3699;51.462;6.696;2022-08-16T09:15:15;8.43;;;5.32;;
7316;SDS011;3699;51.462;6.696;2022-08-16T09:17:42;5.93;;;5.43;;
7316;SDS011;3699;51.462;6.696;2022-08-16T09:20:10;7.03;;;5.40;;
7316;SDS011;3699;51.462;6.696;2022-08-16T09:22:38;7.45;;;5.05;;
7316;SDS011;3699;51.462;6.696;2022-08-16T09:25:06;6.18;;;5.50;;
7316;SDS011;3699;51.462;6.696;2022-08-16T09:27:35;6.82;;;5.82;;
7316;SDS011;3699;51.462;6.696;2022-08-16T09:30:02;6.10;;;5.50;;
7316;SDS011;3699;51.462;6.696;2022-08-16T09:32:29;8.35;;;5.93;;
7316;SDS011;3699;51.462;6.696;2022-08-16T09:34:56;5.32;;;4.80;;
7316;SDS011;3699;51.462;6.696;2022-08-16T09:37:24;10.00;;;5.65;;
7316;SDS011;3699;51.462;6.696;2022-08-16T09:39:50;9.98;;;6.13;;
7316;SDS011;3699;51.462;6.696;2022-08-16T09:42:17;8.00;;;5.65;;
7316;SDS011;3699;51.462;6.696;2022-08-16T09:44:45;6.32;;;5.18;;
7316;SDS011;3699;51.462;6.696;2022-08-16T09:47:12;5.25;;;4.78;;
7316;SDS011;3699;51.462;6.696;2022-08-16T09:49:39;7.60;;;5.15;;
7316;SDS011;3699;51.462;6.696;2022-08-16T09:52:06;8.82;;;5.32;;
7316;SDS011;3699;51.462;6.696;2022-08-16T09:54:34;7.20;;;5.18;;
7316;SDS011;3699;51.462;6.696;2022-08-16T09:57:00;6.13;;;4.95;;
7316;SDS011;3699;51.462;6.696;2022-08-16T09:59:27;8.80;;;5.40;;
7316;SDS011;3699;51.462;6.696;2022-08-16T10:01:56;6.63;;;4.80;;
7316;SDS011;3699;51.462;6.696;2022-08-16T10:04:24;5.72;;;5.10;;
7316;SDS011;3699;51.462;6.696;2022-08-16T10:06:52;7.32;;;5.43;;
7316;SDS011;3699;51.462;6.696;2022-08-16T10:09:20;6.97;;;5.15;;
7316;SDS011;3699;51.462;6.696;2022-08-16T10:11:48;7.72;;;5.40;;
7316;SDS011;3699;51.462;6.696;2022-08-16T10:14:32;5.68;;;5.05;;
7316;SDS011;3699;51.462;6.696;2022-08-16T10:17:02;6.45;;;5.20;;
7316;SDS011;3699;51.462;6.696;2022-08-16T10:19:30;8.05;;;5.32;;
7316;SDS011;3699;51.462;6.696;2022-08-16T10:21:57;6.15;;;5.18;;
7316;SDS011;3699;51.462;6.696;2022-08-16T10:24:24;9.23;;;5.00;;
7316;SDS011;3699;51.462;6.696;2022-08-16T10:26:51;9.80;;;5.40;;
7316;SDS011;3699;51.462;6.696;2022-08-16T10:29:21;7.05;;;5.07;;
7316;SDS011;3699;51.462;6.696;2022-08-16T10:31:48;5.65;;;5.10;;
7316;SDS011;3699;51.462;6.696;2022-08-16T10:34:16;6.88;;;4.88;;
7316;SDS011;3699;51.462;6.696;2022-08-16T10:36:43;7.25;;;5.18;;
7316;SDS011;3699;51.462;6.696;2022-08-16T10:39:10;8.48;;;5.13;;
7316;SDS011;3699;51.462;6.696;2022-08-16T10:41:37;6.55;;;5.20;;
7316;SDS011;3699;51.462;6.696;2022-08-16T10:44:03;5.90;;;4.82;;
7316;SDS011;3699;51.462;6.696;2022-08-16T10:46:31;7.22;;;4.65;;
7316;SDS011;3699;51.462;6.696;2022-08-16T10:48:59;6.60;;;4.55;;
7316;SDS011;3699;51.462;6.696;2022-08-16T10:51:28;5.78;;;5.18;;
7316;SDS011;3699;51.462;6.696;2022-08-16T10:53:56;6.97;;;4.90;;
7316;SDS011;3699;51.462;6.696;2022-08-16T10:56:23;8.00;;;4.97;;
7316;SDS011;3699;51.462;6.696;2022-08-16T10:58:50;7.65;;;5.45;;
7316;SDS011;3699;51.462;6.696;2022-08-16T11:01:22;5.10;;;4.63;;
7316;SDS011;3699;51.462;6.696;2022-08-16T11:03:50;7.57;;;5.00;;
7316;SDS011;3699;51.462;6.696;2022-08-16T11:06:17;8.48;;;5.07;;
7316;SDS011;3699;51.462;6.696;2022-08-16T11:08:45;7.05;;;4.75;;
7316;SDS011;3699;51.462;6.696;2022-08-16T11:11:12;6.20;;;4.70;;
7316;SDS011;3699;51.462;6.696;2022-08-16T11:13:39;6.22;;;4.47;;
7316;SDS011;3699;51.462;6.696;2022-08-16T11:16:08;6.88;;;4.95;;
7316;SDS011;3699;51.462;6.696;2022-08-16T11:18:35;7.25;;;4.53;;
7316;SDS011;3699;51.462;6.696;2022-08-16T11:21:02;7.13;;;4.68;;
7316;SDS011;3699;51.462;6.696;2022-08-16T11:23:29;8.48;;;5.53;;
7316;SDS011;3699;51.462;6.696;2022-08-16T11:25:57;10.32;;;6.28;;
7316;SDS011;3699;51.462;6.696;2022-08-16T11:28:24;5.22;;;4.75;;
7316;SDS011;3699;51.462;6.696;2022-08-16T11:30:51;5.13;;;4.72;;
7316;SDS011;3699;51.462;6.696;2022-08-16T11:33:18;4.93;;;4.32;;
7316;SDS011;3699;51.462;6.696;2022-08-16T11:35:45;5.38;;;4.88;;
7316;SDS011;3699;51.462;6.696;2022-08-16T11:38:13;6.95;;;4.88;;
7316;SDS011;3699;51.462;6.696;2022-08-16T11:40:43;5.45;;;4.60;;
7316;SDS011;3699;51.462;6.696;2022-08-16T11:43:16;5.65;;;4.30;;
7316;SDS011;3699;51.462;6.696;2022-08-16T11:45:46;5.35;;;4.40;;
7316;SDS011;3699;51.462;6.696;2022-08-16T11:48:13;5.85;;;4.10;;
7316;SDS011;3699;51.462;6.696;2022-08-16T11:50:43;6.72;;;4.90;;
7316;SDS011;3699;51.462;6.696;2022-08-16T11:53:10;10.55;;;4.85;;
7316;SDS011;3699;51.462;6.696;2022-08-16T11:55:37;6.60;;;4.30;;
7316;SDS011;3699;51.462;6.696;2022-08-16T11:58:05;5.30;;;4.80;;
7316;SDS011;3699;51.462;6.696;2022-08-16T12:00:35;4.85;;;4.22;;
7316;SDS011;3699;51.462;6.696;2022-08-16T12:03:04;10.32;;;4.50;;
7316;SDS011;3699;51.462;6.696;2022-08-16T12:05:31;7.80;;;4.65;;
7316;SDS011;3699;51.462;6.696;2022-08-16T12:07:59;6.95;;;4.18;;
7316;SDS011;3699;51.462;6.696;2022-08-16T12:10:26;4.93;;;3.83;;
7316;SDS011;3699;51.462;6.696;2022-08-16T12:12:54;9.25;;;4.93;;
7316;SDS011;3699;51.462;6.696;2022-08-16T12:15:21;4.80;;;4.40;;
7316;SDS011;3699;51.462;6.696;2022-08-16T12:17:50;4.28;;;3.90;;
7316;SDS011;3699;51.462;6.696;2022-08-16T12:20:19;5.63;;;4.63;;
7316;SDS011;3699;51.462;6.696;2022-08-16T12:22:50;7.30;;;4.25;;
7316;SDS011;3699;51.462;6.696;2022-08-16T12:25:18;4.72;;;4.00;;
7316;SDS011;3699;51.462;6.696;2022-08-16T12:27:47;6.88;;;4.30;;
7316;SDS011;3699;51.462;6.696;2022-08-16T12:30:15;5.90;;;4.13;;
7316;SDS011;3699;51.462;6.696;2022-08-16T12:32:44;9.77;;;4.57;;
7316;SDS011;3699;51.462;6.696;2022-08-16T12:35:13;6.75;;;4.40;;
7316;SDS011;3699;51.462;6.696;2022-08-16T12:37:41;5.13;;;4.55;;
7316;SDS011;3699;51.462;6.696;2022-08-16T12:40:10;6.47;;;4.72;;
7316;SDS011;3699;51.462;6.696;2022-08-16T12:42:40;5.10;;;4.60;;
7316;SDS011;3699;51.462;6.696;2022-08-16T12:45:08;5.43;;;4.18;;
7316;SDS011;3699;51.462;6.696;2022-08-16T12:47:37;8.45;;;4.38;;
7316;SDS011;3699;51.462;6.696;2022-08-16T12:50:23;6.65;;;5.20;;
7316;SDS011;3699;51.462;6.696;2022-08-16T12:52:50;5.60;;;4.50;;
7316;SDS011;3699;51.462;6.696;2022-08-16T12:55:17;5.43;;;4.60;;
7316;SDS011;3699;51.462;6.696;2022-08-16T12:57:44;5.70;;;4.72;;
7316;SDS011;3699;51.462;6.696;2022-08-16T13:00:12;9.20;;;5.00;;
7316;SDS011;3699;51.462;6.696;2022-08-16T13:02:41;7.57;;;4.88;;
7316;SDS011;3699;51.462;6.696;2022-08-16T13:05:08;6.55;;;4.43;;
7316;SDS011;3699;51.462;6.696;2022-08-16T13:07:37;8.43;;;4.78;;
7316;SDS011;3699;51.462;6.696;2022-08-16T13:10:05;7.70;;;4.22;;
7316;SDS011;3699;51.462;6.696;2022-08-16T13:12:37;7.30;;;4.32;;
7316;SDS011;3699;51.462;6.696;2022-08-16T13:15:06;5.32;;;4.00;;
7316;SDS011;3699;51.462;6.696;2022-08-16T13:17:35;6.35;;;4.45;;
7316;SDS011;3699;51.462;6.696;2022-08-16T13:20:06;5.38;;;4.45;;
7316;SDS011;3699;51.462;6.696;2022-08-16T13:22:35;7.57;;;4.57;;
7316;SDS011;3699;51.462;6.696;2022-08-16T13:25:05;5.18;;;4.50;;
7316;SDS011;3699;51.462;6.696;2022-08-16T13:27:33;5.65;;;4.30;;
7316;SDS011;3699;51.462;6.696;2022-08-16T13:29:59;7.07;;;4.50;;
7316;SDS011;3699;51.462;6.696;2022-08-16T13:32:26;4.82;;;4.32;;
7316;SDS011;3699;51.462;6.696;2022-08-16T13:34:53;5.25;;;4.75;;
7316;SDS011;3699;51.462;6.696;2022-08-16T13:37:19;5.63;;;4.53;;
7316;SDS011;3699;51.462;6.696;2022-08-16T13:39:47;4.68;;;4.28;;
7316;SDS011;3699;51.462;6.696;2022-08-16T13:42:14;4.60;;;4.20;;
7316;SDS011;3699;51.462;6.696;2022-08-16T13:44:42;5.20;;;4.38;;
7316;SDS011;3699;51.462;6.696;2022-08-16T13:47:09;4.93;;;4.20;;
7316;SDS011;3699;51.462;6.696;2022-08-16T13:49:35;4.78;;;4.30;;
7316;SDS011;3699;51.462;6.696;2022-08-16T13:52:02;5.28;;;4.68;;
7316;SDS011;3699;51.462;6.696;2022-08-16T13:54:29;5.72;;;4.45;;
7316;SDS011;3699;51.462;6.696;2022-08-16T13:56:58;4.30;;;4.00;;
7316;SDS011;3699;51.462;6.696;2022-08-16T13:59:25;5.72;;;4.53;;
7316;SDS011;3699;51.462;6.696;2022-08-16T14:01:53;6.03;;;3.92;;
7316;SDS011;3699;51.462;6.696;2022-08-16T14:04:23;4.32;;;3.92;;
7316;SDS011;3699;51.462;6.696;2022-08-16T14:06:52;6.95;;;4.13;;
7316;SDS011;3699;51.462;6.696;2022-08-16T14:09:20;5.43;;;4.85;;
7316;SDS011;3699;51.462;6.696;2022-08-16T14:11:47;5.65;;;4.35;;
7316;SDS011;3699;51.462;6.696;2022-08-16T14:14:15;5.78;;;4.47;;
7316;SDS011;3699;51.462;6.696;2022-08-16T14:16:42;6.90;;;4.60;;
7316;SDS011;3699;51.462;6.696;2022-08-16T14:19:09;4.78;;;4.38;;
7316;SDS011;3699;51.462;6.696;2022-08-16T14:21:42;5.40;;;3.90;;
7316;SDS011;3699;51.462;6.696;2022-08-16T14:24:09;6.40;;;4.90;;
7316;SDS011;3699;51.462;6.696;2022-08-16T14:26:38;6.40;;;4.72;;
7316;SDS011;3699;51.462;6.696;2022-08-16T14:29:04;6.70;;;4.32;;
7316;SDS011;3699;51.462;6.696;2022-08-16T14:31:33;4.93;;;4.30;;
7316;SDS011;3699;51.462;6.696;2022-08-16T14:34:00;6.40;;;3.97;;
7316;SDS011;3699;51.462;6.696;2022-08-16T14:36:28;5.43;;;4.10;;
7316;SDS011;3699;51.462;6.696;2022-08-16T14:38:55;4.45;;;4.03;;
7316;SDS011;3699;51.462;6.696;2022-08-16T14:41:23;6.63;;;4.05;;
7316;SDS011;3699;51.462;6.696;2022-08-16T14:43:50;8.15;;;4.63;;
7316;SDS011;3699;51.462;6.696;2022-08-16T14:46:17;4.90;;;4.50;;
7316;SDS011;3699;51.462;6.696;2022-08-16T14:48:45;5.13;;;4.45;;
7316;SDS011;3699;51.462;6.696;2022-08-16T14:51:12;5.07;;;4.22;;
7316;SDS011;3699;51.462;6.696;2022-08-16T14:53:39;5.00;;;4.60;;
7316;SDS011;3699;51.462;6.696;2022-08-16T14:56:07;7.80;;;4.72;;
7316;SDS011;3699;51.462;6.696;2022-08-16T14:58:34;5.95;;;4.68;;
7316;SDS011;3699;51.462;6.696;2022-08-16T15:01:01;7.57;;;4.43;;
7316;SDS011;3699;51.462;6.696;2022-08-16T15:03:28;5.55;;;4.22;;
7316;SDS011;3699;51.462;6.696;2022-08-16T15:05:56;4.95;;;4.50;;
7316;SDS011;3699;51.462;6.696;2022-08-16T15:08:22;7.88;;;4.68;;
7316;SDS011;3699;51.462;6.696;2022-08-16T15:10:49;6.32;;;4.78;;
7316;SDS011;3699;51.462;6.696;2022-08-16T15:13:16;4.15;;;3.80;;
7316;SDS011;3699;51.462;6.696;2022-08-16T15:15:49;6.57;;;4.43;;
7316;SDS011;3699;51.462;6.696;2022-08-16T15:18:17;5.53;;;4.60;;